Time;durP1;ratioP1;P1;durP2;ratioP2;P2;SDS_P1;SDS_P2;PMS_P1;PMS_P2;Temp;Humidity;BMP_temperature;BMP_pressure;BME280_temperature;BME280_humidity;BME280_pressure;Samples;Min_cycle;Max_cycle;Signal;HPM_P1;HPM_P2
2021/10/15 00:00:41;;;;;;;;;;;;;;;-142.75;100.00;77172.69;5022817;28;19925;-80
2021/10/15 00:03:07;;;;;;;;;;;;;;;-142.75;100.00;77178.59;5043142;28;20551;-79
2021/10/15 00:05:32;;;;;;;;;;;;;;;-142.75;100.00;77174.66;5041868;28;20394;-79
2021/10/15 00:07:57;;;;;;;;;;;;;;;-142.75;100.00;77170.72;5038506;28;20409;-79
2021/10/15 00:10:23;;;;;;;;;;;;;;;-142.75;100.00;77176.63;5021738;28;20295;-78
2021/10/15 00:12:49;;;;;;;;;;;;;;;-142.75;100.00;77180.56;5035672;28;19925;-80
2021/10/15 00:15:14;;;;;;;;;;;;;;;-142.75;100.00;77166.78;5042734;28;19970;-79
2021/10/15 00:17:39;;;;;;;;;;;;;;;-142.75;100.00;77168.75;5043267;28;20349;-78
2021/10/15 00:20:05;;;;;;;;;;;;;;;-142.75;100.00;77151.03;5043647;28;20375;-78
2021/10/15 00:22:30;;;;;;;;;;;;;;;-142.75;100.00;77145.13;5024769;28;19925;-80
2021/10/15 00:24:56;;;;;;;;;;;;;;;-142.75;100.00;77141.19;5039693;28;20007;-78
2021/10/15 00:27:21;;;;;;;;;;;;;;;-142.75;100.00;77164.81;5040289;28;19924;-80
2021/10/15 00:29:46;;;;;;;;;;;;;;;-142.75;100.00;77151.03;5040267;28;19983;-80
2021/10/15 00:32:11;;;;;;;;;;;;;;;-142.75;100.00;77153.00;5022303;28;19967;-79
2021/10/15 00:34:38;;;;;;;;;;;;;;;-142.75;100.00;77154.97;5044566;28;19917;-79
2021/10/15 00:37:04;;;;;;;;;;;;;;;-142.75;100.00;77149.06;5025908;28;19978;-79
2021/10/15 00:39:29;;;;;;;;;;;;;;;-142.75;100.00;77151.03;5042923;28;20004;-79
2021/10/15 00:41:54;;;;;;;;;;;;;;;-142.75;100.00;77139.22;5038374;28;19924;-79
2021/10/15 00:44:19;;;;;;;;;;;;;;;-142.75;100.00;77141.19;5019888;28;19923;-79
2021/10/15 00:46:44;;;;;;;;;;;;;;;-142.75;100.00;77137.25;5027216;28;19916;-79
2021/10/15 00:49:12;;;;;;;;;;;;;;;-142.75;100.00;77133.31;5027089;28;20386;-79
2021/10/15 00:51:39;;;;;;;;;;;;;;;-142.75;100.00;77137.25;5042501;28;20413;-79
2021/10/15 00:54:04;;;;;;;;;;;;;;;-142.75;100.00;77137.25;5021187;28;20011;-79
2021/10/15 00:56:30;;;;;;;;;;;;;;;-142.75;100.00;77131.34;5040742;28;20391;-79
2021/10/15 00:58:56;;;;;;;;;;;;;;;-142.75;100.00;77139.22;5045013;28;19936;-80
2021/10/15 01:01:21;;;;;;;;;;;;;;;-142.75;100.00;77129.38;5042891;28;19917;-79
2021/10/15 01:03:47;;;;;;;;;;;;;;;-142.75;100.00;77125.44;5042604;28;19963;-78
2021/10/15 01:06:12;;;;;;;;;;;;;;;-142.75;100.00;77127.41;5023697;28;20345;-79
2021/10/15 01:08:40;;;;;;;;;;;;;;;-142.75;100.00;77121.50;5021565;28;19972;-79
2021/10/15 01:11:05;;;;;;;;;;;;;;;-142.75;100.00;77109.69;5023152;28;19924;-79
2021/10/15 01:13:31;;;;;;;;;;;;;;;-142.75;100.00;77113.63;5051370;28;20416;-80
2021/10/15 01:16:06;;;;;;;;;;;;;;;-142.75;100.00;77105.75;5037980;28;19917;-80
2021/10/15 01:18:31;;;;;;;;;;;;;;;-142.75;100.00;77107.72;5037874;28;20012;-80
2021/10/15 01:20:57;;;;;;;;;;;;;;;-142.75;100.00;77103.78;5030151;28;20415;-81
2021/10/15 01:23:22;;;;;;;;;;;;;;;-142.75;100.00;77101.81;5035229;28;19962;-79
2021/10/15 01:25:50;;;;;;;;;;;;;;;-142.75;100.00;77082.13;5034569;28;19971;-80
2021/10/15 01:28:15;;;;;;;;;;;;;;;-142.75;100.00;77078.19;5054651;28;19931;-80
2021/10/15 01:30:41;;;;;;;;;;;;;;;-142.75;100.00;77074.25;5054975;28;20338;-79
2021/10/15 01:33:06;;;;;;;;;;;;;;;-142.75;100.00;77062.44;5055483;28;19982;-79
2021/10/15 01:35:31;;;;;;;;;;;;;;;-142.75;100.00;77050.63;5054931;28;20426;-80
2021/10/15 01:37:56;;;;;;;;;;;;;;;-142.75;100.00;77034.88;5053870;28;19916;-78
2021/10/15 01:40:21;;;;;;;;;;;;;;;-142.75;100.00;77034.88;5054892;28;20333;-80
2021/10/15 01:43:05;;;;;;;;;;;;;;;-142.75;100.00;77027.00;5054781;28;19923;-79
2021/10/15 01:45:30;;;;;;;;;;;;;;;-142.75;100.00;77007.31;5036041;28;19986;-79
2021/10/15 01:47:57;;;;;;;;;;;;;;;-142.75;100.00;77011.25;5037103;28;19917;-79
2021/10/15 01:50:22;;;;;;;;;;;;;;;-142.75;100.00;77007.31;5036370;28;19966;-79
2021/10/15 01:52:48;;;;;;;;;;;;;;;-142.75;100.00;77011.25;5036314;28;20347;-79
2021/10/15 01:55:14;;;;;;;;;;;;;;;-142.75;100.00;77011.25;5035666;28;19948;-79
2021/10/15 01:57:39;;;;;;;;;;;;;;;-142.75;100.00;77019.13;5054597;28;19960;-78
2021/10/15 02:00:06;;;;;;;;;;;;;;;-142.75;100.00;77015.19;5036251;28;19958;-78
2021/10/15 02:02:31;;;;;;;;;;;;;;;-142.75;100.00;77019.13;5054194;28;19920;-79
2021/10/15 02:04:56;;;;;;;;;;;;;;;-142.75;100.00;77021.09;5053844;28;20366;-80
2021/10/15 02:07:21;;;;;;;;;;;;;;;-142.75;100.00;77011.25;5053931;28;19924;-79
2021/10/15 02:09:47;;;;;;;;;;;;;;;-142.75;100.00;77007.31;5053684;28;19955;-79
2021/10/15 02:12:12;;;;;;;;;;;;;;;-142.75;100.00;77013.22;5053760;28;19917;-79
2021/10/15 02:14:37;;;;;;;;;;;;;;;-142.75;100.00;77003.38;5053130;28;19917;-79
2021/10/15 02:17:02;;;;;;;;;;;;;;;-142.75;100.00;76997.47;5035503;28;19916;-79
2021/10/15 02:19:28;;;;;;;;;;;;;;;-142.75;100.00;76995.50;5035507;28;19940;-78
2021/10/15 02:21:53;;;;;;;;;;;;;;;-142.75;100.00;76989.59;5035416;28;19956;-79
2021/10/15 02:24:18;;;;;;;;;;;;;;;-142.75;100.00;76983.69;5053471;28;19921;-79
2021/10/15 02:26:44;;;;;;;;;;;;;;;-142.75;100.00;76965.97;5053216;28;20019;-79
2021/10/15 02:29:09;;;;;;;;;;;;;;;-142.75;100.00;76967.94;5035787;28;19917;-78
2021/10/15 02:31:34;;;;;;;;;;;;;;;-142.75;100.00;76952.19;5031323;28;19971;-79
2021/10/15 02:33:59;;;;;;;;;;;;;;;-142.75;100.00;77028.97;5020985;28;19974;-80
2021/10/15 02:36:24;;;;;;;;;;;;;;;-142.75;100.00;77034.88;5034936;28;19917;-79
2021/10/15 02:38:50;;;;;;;;;;;;;;;-142.75;100.00;77034.88;5034820;28;19916;-79
2021/10/15 02:41:15;;;;;;;;;;;;;;;-142.75;100.00;77036.84;5053590;28;19944;-80
2021/10/15 02:43:40;;;;;;;;;;;;;;;-142.75;100.00;77034.88;5035058;28;19925;-79
2021/10/15 02:46:05;;;;;;;;;;;;;;;-142.75;100.00;77032.91;5052760;28;20322;-78
2021/10/15 02:48:30;;;;;;;;;;;;;;;-142.75;100.00;77034.88;5034944;28;19943;-79
2021/10/15 02:50:56;;;;;;;;;;;;;;;-142.75;100.00;77023.06;5053235;28;20298;-79
2021/10/15 02:53:21;;;;;;;;;;;;;;;-142.75;100.00;77030.94;5053102;28;19921;-79
2021/10/15 02:55:46;;;;;;;;;;;;;;;-142.75;100.00;77044.72;5034307;28;19917;-79
2021/10/15 02:58:12;;;;;;;;;;;;;;;-142.75;100.00;77028.97;5034690;28;19940;-78
2021/10/15 03:00:37;;;;;;;;;;;;;;;-142.75;100.00;77023.06;5017136;28;19956;-79
2021/10/15 03:03:02;;;;;;;;;;;;;;;-142.75;100.00;77011.25;5051112;28;19917;-78
2021/10/15 03:05:27;;;;;;;;;;;;;;;-142.75;100.00;77017.16;5052153;28;20298;-81
2021/10/15 03:07:52;;;;;;;;;;;;;;;-142.75;100.00;77019.13;5053286;28;19917;-79
2021/10/15 03:10:18;;;;;;;;;;;;;;;-142.75;100.00;77023.06;5034505;28;20550;-80
2021/10/15 03:12:43;;;;;;;;;;;;;;;-142.75;100.00;77019.13;5052786;28;20389;-80
2021/10/15 03:15:08;;;;;;;;;;;;;;;-142.75;100.00;77023.06;5052925;28;19920;-81
2021/10/15 03:17:34;;;;;;;;;;;;;;;-142.75;100.00;77023.06;5035532;28;19913;-80
2021/10/15 03:19:59;;;;;;;;;;;;;;;-142.75;100.00;77028.97;5035542;28;19924;-78
2021/10/15 03:22:24;;;;;;;;;;;;;;;-142.75;100.00;77036.84;5053623;28;19917;-78
2021/10/15 03:24:49;;;;;;;;;;;;;;;-142.75;100.00;77030.94;5034617;28;19917;-79
2021/10/15 03:27:14;;;;;;;;;;;;;;;-142.75;100.00;77030.94;5034763;28;19971;-79
2021/10/15 03:29:40;;;;;;;;;;;;;;;-142.75;100.00;77032.91;5052844;28;21272;-79
2021/10/15 03:32:05;;;;;;;;;;;;;;;-142.75;100.00;77027.00;5034608;28;19917;-78
2021/10/15 03:34:30;;;;;;;;;;;;;;;-142.75;100.00;77025.03;5034913;28;20437;-79
2021/10/15 03:36:55;;;;;;;;;;;;;;;-142.75;100.00;77023.06;5053139;28;19939;-80
2021/10/15 03:39:20;;;;;;;;;;;;;;;-142.75;100.00;77027.00;5052812;28;19939;-81
2021/10/15 03:41:46;;;;;;;;;;;;;;;-142.75;100.00;77027.00;5035115;28;20012;-78
2021/10/15 03:44:11;;;;;;;;;;;;;;;-142.75;100.00;77027.00;5052532;28;20393;-79
2021/10/15 03:46:36;;;;;;;;;;;;;;;-142.75;100.00;77027.00;5034707;28;19917;-78
2021/10/15 03:49:01;;;;;;;;;;;;;;;-142.75;100.00;77028.97;5052510;28;19917;-79
2021/10/15 03:51:26;;;;;;;;;;;;;;;-142.75;100.00;77028.97;5034752;28;19917;-78
2021/10/15 03:53:52;;;;;;;;;;;;;;;-142.75;100.00;77023.06;5033985;28;20065;-79
2021/10/15 03:56:17;;;;;;;;;;;;;;;-142.75;100.00;77021.09;5034299;28;19917;-79
2021/10/15 03:58:42;;;;;;;;;;;;;;;-142.75;100.00;77023.06;5052619;28;20279;-78
2021/10/15 04:01:07;;;;;;;;;;;;;;;-142.75;100.00;77021.09;5037763;28;19924;-79
2021/10/15 04:03:32;;;;;;;;;;;;;;;-142.75;100.00;77015.19;5056357;28;20008;-79
2021/10/15 04:05:58;;;;;;;;;;;;;;;-142.75;100.00;77019.13;5038221;28;19927;-78
2021/10/15 04:08:23;;;;;;;;;;;;;;;-142.75;100.00;77011.25;5055930;28;19917;-78
2021/10/15 04:10:48;;;;;;;;;;;;;;;-142.75;100.00;77021.09;5038559;28;19928;-78
2021/10/15 04:13:14;;;;;;;;;;;;;;;-142.75;100.00;77015.19;5017924;28;19987;-78
2021/10/15 04:15:39;;;;;;;;;;;;;;;-142.75;100.00;77015.19;5017851;28;19917;-79
2021/10/15 04:18:04;;;;;;;;;;;;;;;-142.75;100.00;77015.19;5018166;28;19921;-77
2021/10/15 04:20:29;;;;;;;;;;;;;;;-142.75;100.00;77011.25;5018291;28;19958;-78
2021/10/15 04:22:54;;;;;;;;;;;;;;;-142.75;100.00;77003.38;5035926;28;19917;-78
2021/10/15 04:27:59;;;;;;;;;;;;;;;-142.75;100.00;76991.56;5091110;28;19977;-81
2021/10/15 04:30:25;;;;;;;;;;;;;;;-142.75;100.00;76985.66;5076835;28;19923;-81
2021/10/15 04:32:50;;;;;;;;;;;;;;;-142.75;100.00;76981.72;5095300;28;19920;-79
2021/10/15 04:35:15;;;;;;;;;;;;;;;-142.75;100.00;76991.56;5095852;28;19916;-81
2021/10/15 04:37:40;;;;;;;;;;;;;;;-142.75;100.00;76975.81;5077275;28;19916;-80
2021/10/15 04:40:06;;;;;;;;;;;;;;;-142.75;100.00;76979.75;5056999;28;19917;-80
2021/10/15 04:42:31;;;;;;;;;;;;;;;-142.75;100.00;76979.75;5075242;28;20432;-81
2021/10/15 04:44:56;;;;;;;;;;;;;;;-142.75;100.00;76964.00;5056620;28;19943;-80
2021/10/15 04:47:22;;;;;;;;;;;;;;;-142.75;100.00;76948.25;5057453;28;19916;-81
2021/10/15 04:49:47;;;;;;;;;;;;;;;-142.75;100.00;76938.41;5069018;28;19969;-81
2021/10/15 04:52:12;;;;;;;;;;;;;;;-142.75;100.00;76930.53;5077172;28;19916;-80
2021/10/15 04:54:37;;;;;;;;;;;;;;;-142.75;100.00;76912.81;5072864;28;19924;-78
2021/10/15 04:57:02;;;;;;;;;;;;;;;-142.75;100.00;76906.91;5058651;28;19917;-82
2021/10/15 04:59:28;;;;;;;;;;;;;;;-142.75;100.00;76897.06;5082070;28;19923;-79
2021/10/15 05:01:53;;;;;;;;;;;;;;;-142.75;100.00;76895.09;5078433;28;20381;-81
2021/10/15 05:04:18;;;;;;;;;;;;;;;-142.75;100.00;76899.03;5074971;28;20408;-79
2021/10/15 05:06:43;;;;;;;;;;;;;;;-142.75;100.00;76897.06;5072618;28;19920;-78
2021/10/15 05:11:35;;;;;;;;;;;;;;;-142.75;100.00;76877.38;5073669;28;19931;-79
2021/10/15 05:14:00;;;;;;;;;;;;;;;-142.75;100.00;76881.31;5075004;28;20435;-79
2021/10/15 05:16:26;;;;;;;;;;;;;;;-142.75;100.00;76873.44;5083717;28;19917;-81
2021/10/15 05:18:51;;;;;;;;;;;;;;;-142.75;100.00;76877.38;5086190;28;20369;-78
2021/10/15 05:21:16;;;;;;;;;;;;;;;-142.75;100.00;76875.41;5074598;28;19916;-79
2021/10/15 05:23:42;;;;;;;;;;;;;;;-142.75;100.00;76879.34;5058506;28;19933;-80
2021/10/15 05:26:07;;;;;;;;;;;;;;;-142.75;100.00;76877.38;5003400;28;1727978;-80
2021/10/15 05:28:32;;;;;;;;;;;;;;;-142.75;100.00;76881.31;5085415;28;19916;-80
2021/10/15 05:30:58;;;;;;;;;;;;;;;-142.75;100.00;76869.50;5084385;28;20005;-79
2021/10/15 05:33:23;;;;;;;;;;;;;;;-142.75;100.00;76881.31;5085788;28;20328;-80
2021/10/15 05:35:49;;;;;;;;;;;;;;;-142.75;100.00;76889.19;5067536;28;19948;-78
2021/10/15 05:38:14;;;;;;;;;;;;;;;-142.75;100.00;76877.38;5085253;28;20010;-80
2021/10/15 05:40:39;;;;;;;;;;;;;;;-142.75;100.00;76881.31;5080848;28;19923;-77
2021/10/15 05:43:04;;;;;;;;;;;;;;;-142.75;100.00;76873.44;5076872;28;19970;-79
2021/10/15 05:45:29;;;;;;;;;;;;;;;-142.75;100.00;76863.59;5075086;28;19928;-79
2021/10/15 05:47:55;;;;;;;;;;;;;;;-142.75;100.00;76865.56;5074991;28;20011;-79
2021/10/15 05:50:20;;;;;;;;;;;;;;;-142.75;100.00;76859.66;5066054;28;19916;-80
2021/10/15 05:52:48;;;;;;;;;;;;;;;-142.75;100.00;76881.31;5060468;28;19921;-79
2021/10/15 06:00:26;;;;;;;;;;;;;;;-142.75;100.00;76928.56;5078556;28;19970;-79
2021/10/15 06:02:51;;;;;;;;;;;;;;;-142.75;100.00;76954.16;5086485;28;19916;-81
2021/10/15 06:06:04;;;;;;;;;;;;;;;-142.75;100.00;76962.03;5083569;28;19990;-80
2021/10/15 06:16:16;;;;;;;;;;;;;;;-142.75;100.00;76977.78;5085944;28;19936;-79
2021/10/15 06:18:51;;;;;;;;;;;;;;;-142.75;100.00;76987.63;5064705;28;20409;-81
2021/10/15 06:21:16;;;;;;;;;;;;;;;-142.75;100.00;76997.47;5094861;28;19923;-82
2021/10/15 06:23:41;;;;;;;;;;;;;;;-142.75;100.00;77007.31;5075521;28;19917;-77
2021/10/15 06:26:06;;;;;;;;;;;;;;;-142.75;100.00;77017.16;5079407;28;19997;-84
2021/10/15 06:28:31;;;;;;;;;;;;;;;-142.75;100.00;77046.69;5070045;28;19916;-78
2021/10/15 06:30:57;;;;;;;;;;;;;;;-142.75;100.00;77070.31;5064902;28;19951;-80
2021/10/15 06:33:22;;;;;;;;;;;;;;;-142.75;100.00;77095.91;5084037;28;19963;-78
2021/10/15 06:35:47;;;;;;;;;;;;;;;-142.75;100.00;77123.47;5061937;28;19925;-80
2021/10/15 06:38:12;;;;;;;;;;;;;;;-142.75;100.00;77149.06;5084590;28;19916;-82
2021/10/15 06:40:40;;;;;;;;;;;;;;;-142.75;100.00;77151.03;5065430;28;19923;-80
2021/10/15 06:43:11;;;;;;;;;;;;;;;-142.75;100.00;77176.63;5065579;28;19923;-79
2021/10/15 06:45:36;;;;;;;;;;;;;;;-142.75;100.00;77184.50;5067815;28;19916;-79
2021/10/15 06:48:02;;;;;;;;;;;;;;;-142.75;100.00;77196.31;5080722;28;20313;-78
2021/10/15 06:50:27;;;;;;;;;;;;;;;-142.75;100.00;77208.13;5071019;28;19977;-79
2021/10/15 06:52:52;;;;;;;;;;;;;;;-142.75;100.00;77216.00;5076570;28;20019;-80
2021/10/15 06:55:19;;;;;;;;;;;;;;;-142.75;100.00;77221.91;5060436;28;20007;-79
2021/10/15 06:57:44;;;;;;;;;;;;;;;-142.75;100.00;77223.88;5079739;28;19920;-81
2021/10/15 07:00:10;;;;;;;;;;;;;;;-142.75;100.00;77233.72;5079656;28;19916;-78
2021/10/15 07:02:36;;;;;;;;;;;;;;;-142.75;100.00;77239.63;5082933;28;19916;-78
2021/10/15 07:05:01;;;;;;;;;;;;;;;-142.75;100.00;77245.53;5084353;28;19916;-79
2021/10/15 07:07:27;;;;;;;;;;;;;;;-142.75;100.00;77269.16;5083568;28;19916;-77
2021/10/15 07:09:52;;;;;;;;;;;;;;;-142.75;100.00;77282.94;5066015;28;20381;-79
2021/10/15 07:12:17;;;;;;;;;;;;;;;-142.75;100.00;77284.91;5084125;28;19923;-80
2021/10/15 07:14:42;;;;;;;;;;;;;;;-142.75;100.00;77294.75;5063314;28;19916;-78
2021/10/15 07:17:07;;;;;;;;;;;;;;;-142.75;100.00;77292.78;5083665;28;19924;-78
2021/10/15 07:19:32;;;;;;;;;;;;;;;-142.75;100.00;77298.69;5073161;28;20271;-78
2021/10/15 07:21:58;;;;;;;;;;;;;;;-142.75;100.00;77298.69;5089803;28;19916;-79
2021/10/15 07:24:23;;;;;;;;;;;;;;;-142.75;100.00;77310.50;5087695;28;19916;-79
2021/10/15 07:26:48;;;;;;;;;;;;;;;-142.75;100.00;77310.50;5074792;28;20389;-81
2021/10/15 07:29:13;;;;;;;;;;;;;;;-142.75;100.00;77314.44;5058245;28;19964;-82
2021/10/15 07:31:38;;;;;;;;;;;;;;;-142.75;100.00;77310.50;5072956;28;19915;-80
2021/10/15 07:34:05;;;;;;;;;;;;;;;-142.75;100.00;77322.31;5064270;28;19925;-78
2021/10/15 07:36:31;;;;;;;;;;;;;;;-142.75;100.00;77322.31;5072756;28;19916;-78
2021/10/15 07:38:56;;;;;;;;;;;;;;;-142.75;100.00;77318.38;5096811;28;19916;-80
2021/10/15 07:41:21;;;;;;;;;;;;;;;-142.75;100.00;77322.31;5069343;28;20026;-78
2021/10/15 07:43:50;;;;;;;;;;;;;;;-142.75;100.00;77332.16;5079357;28;20430;-79
2021/10/15 07:46:15;;;;;;;;;;;;;;;-142.75;100.00;77342.00;5086217;28;20320;-78
2021/10/15 07:48:40;;;;;;;;;;;;;;;-142.75;100.00;77332.16;5088481;28;19938;-80
2021/10/15 07:51:07;;;;;;;;;;;;;;;-142.75;100.00;77326.25;5090099;28;20610;-79
2021/10/15 07:53:32;;;;;;;;;;;;;;;-142.75;100.00;77330.19;5092593;28;19973;-79
2021/10/15 07:55:57;;;;;;;;;;;;;;;-142.75;100.00;77332.16;5068015;28;19920;-80
2021/10/15 07:58:25;;;;;;;;;;;;;;;-142.75;100.00;77328.22;5068834;28;20377;-80
2021/10/15 08:00:50;;;;;;;;;;;;;;;-142.75;100.00;77330.19;5086592;28;20349;-80
2021/10/15 08:03:15;;;;;;;;;;;;;;;-142.75;100.00;77338.06;5066960;28;19920;-80
2021/10/15 08:05:41;;;;;;;;;;;;;;;-142.75;100.00;77336.09;5087109;28;20007;-80
2021/10/15 08:08:06;;;;;;;;;;;;;;;-142.75;100.00;77334.13;5085539;28;19987;-78
2021/10/15 08:10:31;;;;;;;;;;;;;;;-142.75;100.00;77334.13;5067759;28;20023;-78
2021/10/15 08:12:57;;;;;;;;;;;;;;;-142.75;100.00;77330.19;5069148;28;19926;-79
2021/10/15 08:15:25;;;;;;;;;;;;;;;-142.75;100.00;77318.38;5066378;28;19931;-80
2021/10/15 08:17:52;;;;;;;;;;;;;;;-142.75;100.00;77318.38;5066031;28;19917;-80
2021/10/15 08:20:20;;;;;;;;;;;;;;;-142.75;100.00;77314.44;5086412;28;19952;-79
2021/10/15 08:22:45;;;;;;;;;;;;;;;-142.75;100.00;77312.47;5068096;28;19921;-79
2021/10/15 08:25:10;;;;;;;;;;;;;;;-142.75;100.00;77304.59;5086772;28;19916;-80
2021/10/15 08:27:35;;;;;;;;;;;;;;;-142.75;100.00;77326.25;5067839;28;19923;-81
2021/10/15 08:30:01;;;;;;;;;;;;;;;-142.75;100.00;77316.41;5070555;28;19916;-80
2021/10/15 08:32:26;;;;;;;;;;;;;;;-142.75;100.00;77302.63;5086503;28;19916;-81
2021/10/15 08:34:51;;;;;;;;;;;;;;;-142.75;100.00;77290.81;5089349;28;20321;-81
2021/10/15 08:37:17;;;;;;;;;;;;;;;-142.75;100.00;77273.09;5068435;28;19920;-80
2021/10/15 08:39:42;;;;;;;;;;;;;;;-142.75;100.00;77251.44;5086908;28;20007;-79
2021/10/15 08:42:08;;;;;;;;;;;;;;;-142.75;100.00;77249.47;5087627;28;19948;-79
2021/10/15 08:44:33;;;;;;;;;;;;;;;-142.75;100.00;77249.47;5067076;28;19939;-80
2021/10/15 08:46:59;;;;;;;;;;;;;;;-142.75;100.00;77249.47;5081000;28;19916;-81
2021/10/15 08:49:24;;;;;;;;;;;;;;;-142.75;100.00;77219.94;5087885;28;19920;-80
2021/10/15 08:51:50;;;;;;;;;;;;;;;-142.75;100.00;77192.38;5069493;28;20321;-81
2021/10/15 08:54:15;;;;;;;;;;;;;;;-142.75;100.00;77117.56;5070085;28;19928;-81
2021/10/15 08:56:42;;;;;;;;;;;;;;;-142.75;100.00;77028.97;5067833;28;19916;-80
2021/10/15 08:59:09;;;;;;;;;;;;;;;-142.75;100.00;77001.41;5068154;28;19920;-81
2021/10/15 09:01:45;;;;;;;;;;;;;;;-142.75;100.00;76979.75;5067033;28;19924;-80
2021/10/15 09:04:15;;;;;;;;;;;;;;;-142.75;100.00;77005.34;5069855;28;19924;-82
2021/10/15 09:06:40;;;;;;;;;;;;;;;-142.75;100.00;76967.94;5092835;28;19916;-82
2021/10/15 09:09:06;;;;;;;;;;;;;;;-142.75;100.00;76873.44;5082546;28;20301;-84
2021/10/15 09:11:42;;;;;;;;;;;;;;;-142.75;99.85;76830.13;5083049;28;19923;-80
2021/10/15 09:14:12;;;;;;;;;;;;;;;-142.75;96.15;76847.84;5091796;28;20008;-83
2021/10/15 09:16:50;;;;;;;;;;;;;;;-142.75;97.99;76751.41;5082038;28;19927;-79
2021/10/15 09:19:29;;;;;;;;;;;;;;;-142.75;92.14;76668.72;5085253;28;20301;-79
2021/10/15 09:22:05;;;;;;;;;;;;;;;-142.75;82.27;76712.03;5091890;28;19920;-83
2021/10/15 09:24:36;;;;;;;;;;;;;;;-142.75;83.12;76769.13;5068818;28;19916;-80
2021/10/15 09:27:09;;;;;;;;;;;;;;;-142.75;82.09;76798.66;5082253;28;19916;-84
2021/10/15 09:29:41;;;;;;;;;;;;;;;-142.75;85.23;76786.84;5068458;28;19987;-82
2021/10/15 09:32:07;;;;;;;;;;;;;;;-142.75;84.16;76717.94;5071644;28;20369;-80
2021/10/15 09:34:34;;;;;;;;;;;;;;;-142.75;82.34;76570.28;5074011;28;19920;-81
2021/10/15 09:36:59;;;;;;;;;;;;;;;-142.75;75.85;76408.88;5090892;28;19917;-82
2021/10/15 09:39:25;;;;;;;;;;;;;;;-142.75;62.77;76322.28;5068459;28;19923;-80
2021/10/15 09:41:50;;;;;;;;;;;;;;;-142.75;64.24;76227.78;5085752;28;19946;-82
2021/10/15 09:44:30;;;;;;;;;;;;;;;-142.75;55.44;76176.63;5068067;28;19916;-81
2021/10/15 09:47:13;;;;;;;;;;;;;;;-142.75;52.26;76162.84;5084264;28;19939;-82
2021/10/15 09:49:58;;;;;;;;;;;;;;;-142.75;54.25;76050.66;5066277;28;19916;-83
2021/10/15 09:52:26;;;;;;;;;;;;;;;-142.75;52.85;76027.03;5081712;28;20342;-80
2021/10/15 09:54:55;;;;;;;;;;;;;;;-142.75;53.94;75942.41;5066151;28;20404;-80
2021/10/15 09:57:31;;;;;;;;;;;;;;;-142.75;48.91;75855.81;5065927;28;19933;-80
2021/10/15 09:59:57;;;;;;;;;;;;;;;-142.75;45.62;75873.50;5071980;28;19919;-80
2021/10/15 10:02:23;;;;;;;;;;;;;;;-142.75;47.14;75834.16;5067091;28;20396;-80
2021/10/15 10:04:49;;;;;;;;;;;;;;;-142.75;44.45;75834.16;5067948;28;19917;-79
2021/10/15 10:07:14;;;;;;;;;;;;;;;-142.75;41.86;75794.78;5067263;28;19920;-81
2021/10/15 10:09:39;;;;;;;;;;;;;;;-142.75;40.73;75857.78;5066059;28;19926;-81
2021/10/15 10:12:05;;;;;;;;;;;;;;;-142.75;40.81;75906.97;5084606;28;19927;-81
2021/10/15 10:14:30;;;;;;;;;;;;;;;-142.75;39.57;75920.75;5085820;28;19947;-79
2021/10/15 10:16:57;;;;;;;;;;;;;;;-142.75;40.56;76133.31;5083066;28;19916;-80
2021/10/15 10:19:25;;;;;;;;;;;;;;;-142.75;45.72;76143.16;5084399;28;20275;-80
2021/10/15 10:21:51;;;;;;;;;;;;;;;-142.75;41.92;76119.53;5067707;28;19924;-77
2021/10/15 10:24:17;;;;;;;;;;;;;;;-142.75;43.34;76048.69;5063447;28;20293;-77
2021/10/15 10:26:47;;;;;;;;;;;;;;;-142.75;41.25;76062.47;5063540;28;20443;-77
2021/10/15 10:29:12;;;;;;;;;;;;;;;-142.75;41.82;75981.75;5065829;28;19924;-79
2021/10/15 10:31:38;;;;;;;;;;;;;;;-142.75;40.81;76090.00;5064440;28;19923;-81
2021/10/15 10:34:07;;;;;;;;;;;;;;;-142.75;43.75;76139.22;5084766;28;20108;-80
2021/10/15 10:36:34;;;;;;;;;;;;;;;-142.75;43.20;76060.50;5064639;28;20007;-81
2021/10/15 10:39:29;;;;;;;;;;;;;;;-142.75;43.67;76007.34;5082726;28;19916;-82
2021/10/15 10:42:01;;;;;;;;;;;;;;;-142.75;43.58;75930.59;5068088;28;19923;-80
2021/10/15 10:44:26;;;;;;;;;;;;;;;-142.75;40.70;75881.38;5077356;28;19916;-81
2021/10/15 10:47:15;;;;;;;;;;;;;;;-142.75;41.94;75997.50;5070504;28;20349;-81
2021/10/15 10:49:41;;;;;;;;;;;;;;;-142.75;41.45;75964.03;5081863;28;19917;-80
2021/10/15 10:52:08;;;;;;;;;;;;;;;-142.75;40.17;76044.75;5086246;28;20344;-80
2021/10/15 10:54:33;;;;;;;;;;;;;;;-142.75;42.59;76025.06;5062491;28;19939;-83
2021/10/15 10:57:11;;;;;;;;;;;;;;;-142.75;41.36;76095.91;5080551;28;19916;-81
2021/10/15 10:59:36;;;;;;;;;;;;;;;-142.75;42.83;76282.91;5080347;28;19931;-79
2021/10/15 11:02:10;;;;;;;;;;;;;;;-142.75;43.35;76302.59;5089172;28;20366;-80
2021/10/15 11:04:37;;;;;;;;;;;;;;;-142.75;43.58;76160.88;5077106;28;19952;-79
2021/10/15 11:07:02;;;;;;;;;;;;;;;-142.75;41.82;76086.06;5078602;28;19917;-79
2021/10/15 11:09:28;;;;;;;;;;;;;;;-142.75;42.76;76168.75;5063365;28;19940;-79
2021/10/15 11:11:53;;;;;;;;;;;;;;;-142.75;43.77;76355.72;5082869;28;20014;-79
2021/10/15 11:14:44;;;;;;;;;;;;;;;-142.75;47.33;76511.25;5083746;28;19924;-78
2021/10/15 11:17:10;;;;;;;;;;;;;;;-142.75;51.37;76649.03;5064871;28;19923;-79
2021/10/15 11:19:35;;;;;;;;;;;;;;;-142.75;54.51;76678.56;5059173;28;19921;-78
2021/10/15 11:22:01;;;;;;;;;;;;;;;-142.75;54.03;76552.56;5083098;28;20330;-79
2021/10/15 11:24:26;;;;;;;;;;;;;;;-142.75;49.79;76389.19;5087414;28;19931;-80
2021/10/15 11:26:51;;;;;;;;;;;;;;;-142.75;47.28;76271.09;5061184;28;20273;-81
2021/10/15 11:29:16;;;;;;;;;;;;;;;-142.75;43.37;76164.81;5080025;28;19959;-80
2021/10/15 11:31:51;;;;;;;;;;;;;;;-142.75;44.35;76145.13;5067952;28;19939;-80
2021/10/15 11:34:16;;;;;;;;;;;;;;;-142.75;43.24;76225.81;5079215;28;19920;-80
2021/10/15 11:36:41;;;;;;;;;;;;;;;-142.75;46.03;76341.97;5079103;28;20420;-79
2021/10/15 11:39:07;;;;;;;;;;;;;;;-142.75;43.78;76530.91;5065419;28;19920;-80
2021/10/15 11:41:32;;;;;;;;;;;;;;;-142.75;47.21;76680.53;5084387;28;19939;-79
2021/10/15 11:43:57;;;;;;;;;;;;;;;-142.75;49.24;76814.38;5064346;28;20300;-79
2021/10/15 11:46:25;;;;;;;;;;;;;;;-142.75;52.57;76845.88;5082777;28;19955;-79
2021/10/15 11:48:52;;;;;;;;;;;;;;;-142.75;54.76;76838.00;5081665;28;19923;-78
2021/10/15 11:51:17;;;;;;;;;;;;;;;-142.75;58.01;76830.13;5083773;28;20572;-80
2021/10/15 11:53:47;;;;;;;;;;;;;;;-142.75;57.57;76843.91;5063883;28;19924;-78
2021/10/15 11:56:13;;;;;;;;;;;;;;;-142.75;58.06;76832.09;5080968;28;19923;-79
2021/10/15 11:58:43;;;;;;;;;;;;;;;-142.75;59.36;76824.22;5064800;28;19916;-79
2021/10/15 12:01:11;;;;;;;;;;;;;;;-142.75;55.41;76901.00;5070755;28;19970;-79
2021/10/15 12:03:41;;;;;;;;;;;;;;;-142.75;58.78;76926.59;5086015;28;19916;-82
2021/10/15 12:06:11;;;;;;;;;;;;;;;-142.75;55.13;76960.06;5084212;28;20412;-79
2021/10/15 12:08:37;;;;;;;;;;;;;;;-142.75;59.00;76985.66;5082490;28;19954;-81
2021/10/15 12:11:02;;;;;;;;;;;;;;;-142.75;61.09;77015.19;5080583;28;20010;-80
2021/10/15 12:13:28;;;;;;;;;;;;;;;-142.75;61.55;77030.94;5078255;28;19924;-79
2021/10/15 12:15:53;;;;;;;;;;;;;;;-142.75;59.67;77036.84;5081088;28;19923;-79
2021/10/15 12:18:19;;;;;;;;;;;;;;;-142.75;60.47;77050.63;5082014;28;19942;-80
2021/10/15 12:20:45;;;;;;;;;;;;;;;-142.75;60.04;77058.50;5086284;28;20304;-79
2021/10/15 12:23:10;;;;;;;;;;;;;;;-142.75;61.69;77099.84;5085787;28;19916;-78
2021/10/15 12:25:35;;;;;;;;;;;;;;;-142.75;64.44;77105.75;5075366;28;20305;-79
2021/10/15 12:28:10;;;;;;;;;;;;;;;-142.75;67.20;77095.91;5065820;28;19916;-81
2021/10/15 12:30:35;;;;;;;;;;;;;;;-142.75;68.04;77070.31;5087468;28;19923;-81
2021/10/15 12:33:06;;;;;;;;;;;;;;;-142.75;66.19;77044.72;5077327;28;19925;-80
2021/10/15 12:35:31;;;;;;;;;;;;;;;-142.75;64.91;77054.56;5067417;28;19920;-81